Observations for LONDON HEATHROW, United Kingdom (EGLL)

EGLL 180520Z AUTO 25008KT 9999 OVC023 15/13 Q1018 NOSIG 
EGLL 180450Z AUTO 26008KT 9999 BKN026 OVC030 15/13 Q1017 NOSIG  
EGLL 180420Z AUTO 27009KT 9999 SCT021 OVC027 14/13 Q1017 NOSIG  
EGLL 180350Z AUTO 27009KT 9999 SCT014 BKN019 OVC032 15/13 Q1017 REDZ TEMPO BKN014   
EGLL 180320Z AUTO 26009KT 230V300 4900 -DZ SCT007 BKN010 OVC028 15/14 Q1017 BECMG 9999 NSW SCT010   
EGLL 180250Z AUTO 21007KT 8000 FEW009 SCT013 BKN019 16/15 Q1016 TEMPO 4000 -RADZ BKN009 
EGLL 180220Z AUTO 21008KT 6000 OVC027 16/15 Q1016 TEMPO BKN014  
EGLL 180150Z AUTO 21007KT 4000 BR FEW005 SCT009 BKN015 16/15 Q1017 BECMG 6000 NSW   
EGLL 180120Z 23008KT 3100 -DZ BR BKN005 OVC014 16/15 Q1017 REDZ NOSIG   
EGLL 180120Z AUTO 23008KT 3100 DZ OVC005 16/15 Q1017 BECMG 6000 NSW
EGLL 180050Z AUTO 22009KT 8000 OVC005 16/15 Q1017 NOSIG 
EGLL 180020Z AUTO 22009KT 9000 BKN005 OVC032 16/15 Q1017 NOSIG  
EGLL 172350Z AUTO 22009KT 7000 BKN006 OVC031 16/14 Q1017 TEMPO 4000 -RADZ   
EGLL 172320Z AUTO 21009KT 9999 BKN005 BKN009 OVC035 15/14 Q1017 TEMPO 4000 -RADZ
EGLL 172250Z AUTO 21008KT 8000 -RA BKN006 BKN024 OVC028 15/14 Q1017 TEMPO 4000 -RADZ
EGLL 172220Z AUTO 21009KT 6000 BKN006 OVC027 15/14 Q1017 TEMPO 4000 -RADZ   
EGLL 172150Z AUTO 22010KT 190V250 9999 OVC006 16/14 Q1017 NOSIG 
EGLL 172120Z AUTO 22010KT 180V240 9999 OVC007 15/14 Q1017 NOSIG 
EGLL 172050Z AUTO 22009KT 180V250 9999 OVC007 15/14 Q1017 NOSIG 
EGLL 172020Z AUTO 22009KT 180V250 9999 OVC007 15/13 Q1017 NOSIG 
EGLL 171950Z AUTO 22011G21KT 180V250 9999 OVC008 16/13 Q1017 NOSIG  
EGLL 171920Z AUTO 22012KT 9999 OVC009 15/13 Q1017 NOSIG 
EGLL 171850Z AUTO 23013KT 9999 OVC011 16/13 Q1017 NOSIG 
EGLL 171820Z AUTO 23012G24KT 9999 OVC011 16/13 Q1017 NOSIG  
EGLL 171750Z AUTO 22011KT 190V250 9999 OVC012 16/13 Q1017 NOSIG 
EGLL 171720Z AUTO 22013KT 9999 BKN014 16/12 Q1016 NOSIG 
EGLL 171650Z AUTO 22014KT 9999 BKN020 OVC024 17/12 Q1016 BECMG BKN014   
EGLL 171620Z AUTO 23015KT 9999 OVC021 17/11 Q1016 TEMPO BKN014  
EGLL 171550Z AUTO 22013KT 190V250 9999 OVC026 17/11 Q1017 TEMPO BKN014  
EGLL 171520Z AUTO 22013KT 9999 BKN025 OVC031 17/11 Q1017 NOSIG  
EGLL 171450Z AUTO 23014KT 9999 OVC025 17/11 Q1016 NOSIG 
EGLL 171420Z AUTO 24014KT 200V270 9999 BKN029 18/11 Q1017 NOSIG 
EGLL 171350Z AUTO 22011KT 9999 BKN028 18/11 Q1016 NOSIG 
EGLL 171320Z AUTO 23013KT 9999 BKN031 BKN037 OVC048 18/10 Q1016 NOSIG   
EGLL 171250Z AUTO 24013KT 9999 BKN034 OVC041 18/10 Q1016 NOSIG  
EGLL 171220Z AUTO 24012KT 9999 BKN036 BKN043 19/10 Q1016 NOSIG  
EGLL 171150Z AUTO 23014KT 9999 BKN036 18/09 Q1016 NOSIG 
EGLL 171120Z AUTO 23014KT 9999 FEW035 SCT041 19/09 Q1016 NOSIG  
EGLL 171050Z AUTO 25012KT 220V290 9999 SCT032 BKN042 18/10 Q1016 NOSIG  
EGLL 171020Z AUTO 25012G22KT 9999 SCT029 BKN035 19/10 Q1016 NOSIG   
EGLL 170950Z AUTO 24011KT 9999 FEW023 SCT028 17/11 Q1016 NOSIG  
EGLL 170920Z AUTO 25010KT 9999 FEW024 16/11 Q1017 NOSIG 
EGLL 170850Z AUTO 26011KT 9999 SCT019 16/11 Q1017 NOSIG 
EGLL 170820Z AUTO 25011KT 220V280 9999 SCT016 15/11 Q1017 NOSIG 
EGLL 170750Z AUTO 25010KT 9999 -RA FEW024 SCT033 14/12 Q1017 NOSIG  
EGLL 170720Z AUTO 24009KT 9999 -RA FEW028 SCT039 BKN046 14/11 Q1017 NOSIG   
EGLL 170650Z AUTO 24009KT 9999 -RA FEW040 SCT049 13/11 Q1016 NOSIG  
EGLL 170620Z AUTO 24011KT 9999 -RA NCD 13/11 Q1016 NOSIG
EGLL 170550Z AUTO 24012KT 9999 -RA NCD 14/10 Q1016 TEMPO 8000 -RA   
EGLL 170520Z AUTO 24010KT 9999 NCD 14/10 Q1015 NOSIG
EGLL 170450Z AUTO 24009KT 9999 NCD 14/10 Q1015 NOSIG